createdAt,value
2022-12-31T00:00:13.114Z,1.90
2022-12-31T00:02:39.969Z,1.27
2022-12-31T00:05:07.648Z,1.00
2022-12-31T00:10:01.772Z,1.53
2022-12-31T00:12:28.486Z,0.77
2022-12-31T00:14:57.640Z,0.80
2022-12-31T00:17:24.384Z,1.03
2022-12-31T00:19:51.061Z,1.20
2022-12-31T00:22:17.781Z,0.80
2022-12-31T00:24:46.872Z,0.73
2022-12-31T00:27:13.519Z,0.90
2022-12-31T00:29:42.427Z,0.67
2022-12-31T00:32:10.282Z,0.80
2022-12-31T00:34:36.976Z,0.80
2022-12-31T00:37:03.707Z,2.40
2022-12-31T00:39:30.478Z,1.23
2022-12-31T00:41:59.548Z,1.70
2022-12-31T00:44:26.202Z,1.20
2022-12-31T00:46:52.872Z,0.80
2022-12-31T00:49:21.928Z,1.20
2022-12-31T00:51:48.730Z,0.70
2022-12-31T00:54:17.957Z,1.17
2022-12-31T00:56:44.660Z,0.90
2022-12-31T00:59:11.324Z,0.97
2022-12-31T01:01:40.227Z,1.83
2022-12-31T01:04:19.090Z,1.10
2022-12-31T01:06:48.329Z,0.77
2022-12-31T01:09:16.711Z,1.10
2022-12-31T01:11:46.178Z,0.60
2022-12-31T01:14:18.659Z,1.10
2022-12-31T01:16:53.578Z,1.13
2022-12-31T01:19:25.996Z,0.80
2022-12-31T01:21:53.564Z,1.07
2022-12-31T01:24:23.398Z,0.87
2022-12-31T01:26:51.680Z,0.90
2022-12-31T01:29:18.462Z,0.80
2022-12-31T01:31:47.577Z,0.93
2022-12-31T01:34:14.220Z,1.17
2022-12-31T01:36:42.848Z,1.00
2022-12-31T01:39:10.794Z,0.70
2022-12-31T01:41:41.931Z,0.80
2022-12-31T01:44:11.589Z,0.80
2022-12-31T01:47:00.017Z,0.77
2022-12-31T01:49:36.365Z,0.77
2022-12-31T01:52:11.621Z,0.83
2022-12-31T01:54:43.844Z,0.80
2022-12-31T01:57:11.829Z,0.70
2022-12-31T01:59:38.916Z,0.70
2022-12-31T02:02:06.086Z,0.60
2022-12-31T02:04:33.015Z,0.60
2022-12-31T02:07:07.198Z,1.00
2022-12-31T02:09:38.155Z,0.90
2022-12-31T02:12:05.945Z,0.33
2022-12-31T02:14:37.032Z,0.53
2022-12-31T02:17:41.770Z,0.60
2022-12-31T02:20:42.653Z,0.90
2022-12-31T02:23:18.849Z,0.60
2022-12-31T02:26:13.535Z,0.60
2022-12-31T02:28:40.295Z,0.63
2022-12-31T02:31:21.730Z,0.70
2022-12-31T02:34:06.349Z,0.73
2022-12-31T02:36:42.846Z,0.97
2022-12-31T02:39:11.857Z,1.00
2022-12-31T02:41:50.542Z,1.33
2022-12-31T02:44:26.985Z,1.27
2022-12-31T02:46:59.224Z,0.90
2022-12-31T02:50:06.945Z,0.60
2022-12-31T02:52:59.011Z,0.60
2022-12-31T02:55:47.162Z,0.40
2022-12-31T02:58:47.253Z,0.50
2022-12-31T03:01:36.990Z,0.50
2022-12-31T03:04:25.037Z,0.93
2022-12-31T03:06:57.467Z,0.33
2022-12-31T03:09:24.209Z,0.67
2022-12-31T03:12:12.101Z,1.53
2022-12-31T03:14:39.096Z,0.67
2022-12-31T03:17:06.085Z,0.57
2022-12-31T03:19:51.083Z,1.07
2022-12-31T03:22:30.023Z,0.40
2022-12-31T03:25:24.891Z,0.50
2022-12-31T03:27:52.566Z,0.53
2022-12-31T03:30:21.090Z,0.50
2022-12-31T03:32:48.868Z,0.80
2022-12-31T03:35:17.187Z,0.97
2022-12-31T03:37:43.956Z,0.73
2022-12-31T03:40:13.125Z,1.00
2022-12-31T03:42:42.611Z,0.97
2022-12-31T03:45:10.787Z,0.47
2022-12-31T03:47:37.883Z,1.57
2022-12-31T03:50:06.650Z,0.87
2022-12-31T03:52:33.418Z,0.53
2022-12-31T03:55:01.571Z,0.53
2022-12-31T03:57:32.287Z,1.40
2022-12-31T03:59:59.089Z,0.40
2022-12-31T04:02:28.795Z,1.00
2022-12-31T04:04:58.550Z,0.57
2022-12-31T04:07:25.281Z,1.43
2022-12-31T04:09:52.010Z,1.47
2022-12-31T04:12:18.741Z,0.57
2022-12-31T04:14:50.061Z,1.27
2022-12-31T04:17:19.056Z,0.80
2022-12-31T04:19:45.816Z,0.60
2022-12-31T04:22:17.477Z,0.77
2022-12-31T04:24:44.505Z,0.60
2022-12-31T04:27:12.955Z,0.53
2022-12-31T04:29:39.655Z,0.70
2022-12-31T04:32:07.666Z,0.60
2022-12-31T04:34:34.812Z,2.63
2022-12-31T04:37:02.151Z,0.60
2022-12-31T04:39:31.846Z,1.67
2022-12-31T04:41:58.555Z,0.50
2022-12-31T04:44:25.232Z,0.53
2022-12-31T04:46:52.002Z,0.40
2022-12-31T04:49:18.767Z,0.97
2022-12-31T04:51:45.564Z,0.67
2022-12-31T04:54:12.445Z,0.55
2022-12-31T04:56:39.217Z,0.50
2022-12-31T04:59:07.210Z,0.40
2022-12-31T05:01:36.742Z,1.83
2022-12-31T05:04:03.612Z,2.30
2022-12-31T05:06:30.249Z,0.68
2022-12-31T05:08:56.957Z,0.50
2022-12-31T05:11:25.780Z,0.83
2022-12-31T05:13:54.992Z,0.40
2022-12-31T05:16:21.851Z,0.40
2022-12-31T05:18:50.692Z,0.73
2022-12-31T05:21:21.185Z,1.17
2022-12-31T05:23:48.607Z,0.83
2022-12-31T05:26:15.698Z,0.50
2022-12-31T05:28:45.056Z,0.50
2022-12-31T05:31:11.735Z,0.50
2022-12-31T05:33:41.583Z,1.27
2022-12-31T05:36:08.592Z,0.70
2022-12-31T05:38:38.026Z,0.60
2022-12-31T05:41:10.437Z,1.40
2022-12-31T05:43:37.189Z,0.43
2022-12-31T05:46:07.406Z,0.63
2022-12-31T05:48:36.312Z,1.27
2022-12-31T05:51:05.584Z,0.40
2022-12-31T05:53:34.308Z,1.53
2022-12-31T05:56:01.217Z,0.60
2022-12-31T05:58:28.021Z,0.60
2022-12-31T06:00:54.744Z,3.38
2022-12-31T06:03:21.693Z,0.60
2022-12-31T06:05:48.506Z,0.60
2022-12-31T06:08:15.281Z,1.40
2022-12-31T06:10:42.482Z,0.87
2022-12-31T06:13:13.556Z,0.80
2022-12-31T06:15:40.502Z,0.75
2022-12-31T06:18:07.936Z,0.63
2022-12-31T06:20:39.645Z,2.30
2022-12-31T06:23:10.962Z,0.77
2022-12-31T06:25:37.650Z,0.60
2022-12-31T06:28:05.702Z,0.70
2022-12-31T06:30:37.046Z,0.57
2022-12-31T06:33:03.730Z,0.80
2022-12-31T06:35:30.674Z,0.77
2022-12-31T06:37:57.587Z,0.80
2022-12-31T06:40:24.353Z,2.10
2022-12-31T06:42:56.009Z,1.10
2022-12-31T06:45:26.302Z,0.70
2022-12-31T06:47:53.050Z,0.77
2022-12-31T06:50:22.025Z,1.30
2022-12-31T06:52:48.651Z,0.77
2022-12-31T06:55:15.995Z,0.70
2022-12-31T06:57:42.875Z,1.10
2022-12-31T07:00:13.275Z,0.83
2022-12-31T07:03:08.703Z,1.30
2022-12-31T07:05:44.437Z,1.00
2022-12-31T07:08:29.549Z,0.77
2022-12-31T07:11:39.284Z,1.73
2022-12-31T07:14:34.930Z,1.70
2022-12-31T07:17:04.360Z,0.87
2022-12-31T07:19:46.470Z,3.03
2022-12-31T07:22:16.140Z,0.97
2022-12-31T07:24:44.784Z,0.80
2022-12-31T07:27:35.345Z,1.60
2022-12-31T07:30:08.882Z,0.60
2022-12-31T07:33:13.383Z,0.80
2022-12-31T07:35:56.058Z,0.73
2022-12-31T07:38:44.122Z,0.80
2022-12-31T07:41:32.612Z,0.80
2022-12-31T07:44:36.440Z,1.13
2022-12-31T07:47:25.046Z,1.23
2022-12-31T07:49:56.814Z,2.50
2022-12-31T07:52:26.700Z,1.93
2022-12-31T07:54:55.652Z,1.43
2022-12-31T07:57:27.566Z,1.63
2022-12-31T08:00:08.455Z,1.40
2022-12-31T08:02:59.964Z,1.20
2022-12-31T08:05:43.509Z,1.67
2022-12-31T08:08:49.700Z,1.73
2022-12-31T08:11:49.481Z,2.20
2022-12-31T08:14:18.707Z,2.37
2022-12-31T08:16:47.868Z,2.00
2022-12-31T08:19:28.405Z,2.00
2022-12-31T08:22:20.524Z,1.70
2022-12-31T08:24:59.340Z,1.77
2022-12-31T08:28:03.622Z,2.10
2022-12-31T08:30:37.035Z,2.40
2022-12-31T08:33:28.233Z,2.17
2022-12-31T08:36:14.439Z,1.97
2022-12-31T08:39:00.288Z,2.40
2022-12-31T08:41:39.031Z,2.40
2022-12-31T08:44:32.821Z,2.40
2022-12-31T08:47:02.303Z,2.47
2022-12-31T08:49:34.239Z,3.00
2022-12-31T08:52:01.647Z,2.33
2022-12-31T08:54:28.769Z,2.90
2022-12-31T08:57:17.235Z,2.78
2022-12-31T09:00:11.411Z,3.13
2022-12-31T09:02:49.989Z,2.40
2022-12-31T09:05:43.348Z,2.40
2022-12-31T09:08:21.404Z,2.58
2022-12-31T09:10:58.810Z,2.43
2022-12-31T09:13:40.239Z,2.33
2022-12-31T09:16:13.164Z,3.23
2022-12-31T09:18:42.076Z,2.20
2022-12-31T09:21:16.352Z,2.13
2022-12-31T09:23:43.382Z,3.00
2022-12-31T09:26:35.203Z,2.57
2022-12-31T09:29:23.081Z,4.50
2022-12-31T09:32:04.771Z,2.60
2022-12-31T09:34:41.717Z,2.70
2022-12-31T09:37:23.039Z,2.80
2022-12-31T09:39:49.825Z,3.93
2022-12-31T09:42:26.631Z,2.50
2022-12-31T09:45:14.378Z,2.00
2022-12-31T09:48:04.589Z,2.40
2022-12-31T09:51:08.460Z,2.47
2022-12-31T09:54:00.007Z,2.30
2022-12-31T09:56:45.006Z,2.73
2022-12-31T09:59:33.250Z,1.40
2022-12-31T10:02:22.803Z,1.97
2022-12-31T10:05:17.238Z,2.10
2022-12-31T10:07:52.956Z,1.60
2022-12-31T10:10:35.315Z,1.03
2022-12-31T10:13:29.923Z,1.27
2022-12-31T10:16:05.335Z,1.75
2022-12-31T10:18:57.501Z,1.30
2022-12-31T10:21:56.696Z,1.27
2022-12-31T10:24:44.736Z,1.20
2022-12-31T10:27:30.210Z,0.80
2022-12-31T10:30:19.559Z,1.80
2022-12-31T10:33:14.152Z,1.10
2022-12-31T10:36:19.900Z,1.07
2022-12-31T10:39:13.509Z,1.10
2022-12-31T10:42:01.856Z,1.08
2022-12-31T10:44:42.860Z,0.90
2022-12-31T10:47:28.950Z,1.50
2022-12-31T10:49:58.657Z,0.80
2022-12-31T10:52:51.704Z,1.00
2022-12-31T10:55:56.073Z,1.00
2022-12-31T10:58:31.004Z,1.10
2022-12-31T11:01:13.459Z,1.07
2022-12-31T11:03:43.159Z,2.27
2022-12-31T11:06:09.922Z,2.67
2022-12-31T11:08:42.577Z,1.17
2022-12-31T11:11:09.174Z,1.00
2022-12-31T11:13:41.687Z,1.77
2022-12-31T11:16:14.280Z,1.40
2022-12-31T11:19:09.926Z,1.57
2022-12-31T11:21:45.597Z,0.82
2022-12-31T11:24:33.915Z,1.60
2022-12-31T11:27:29.306Z,1.40
2022-12-31T11:30:11.140Z,1.00
2022-12-31T11:33:15.557Z,1.10
2022-12-31T11:35:45.022Z,1.30
2022-12-31T11:38:35.887Z,1.00
2022-12-31T11:41:23.944Z,1.10
2022-12-31T11:44:10.827Z,1.27
2022-12-31T11:46:59.065Z,1.33
2022-12-31T11:49:49.984Z,1.20
2022-12-31T11:52:21.253Z,1.10
2022-12-31T11:55:19.526Z,0.90
2022-12-31T11:57:50.780Z,3.63
2022-12-31T12:00:21.434Z,1.10
2022-12-31T12:02:58.464Z,1.00
2022-12-31T12:05:29.016Z,1.13
2022-12-31T12:07:56.322Z,1.10
2022-12-31T12:10:36.968Z,0.87
2022-12-31T12:13:13.734Z,1.40
2022-12-31T12:15:44.486Z,0.93
2022-12-31T12:18:29.920Z,0.70
2022-12-31T12:21:09.010Z,0.90
2022-12-31T12:23:35.745Z,0.73
2022-12-31T12:26:02.552Z,2.00
2022-12-31T12:28:44.424Z,1.07
2022-12-31T12:31:23.488Z,0.90
2022-12-31T12:33:51.994Z,0.77
2022-12-31T12:36:20.681Z,1.10
2022-12-31T12:38:49.562Z,0.90
2022-12-31T12:41:26.280Z,0.87
2022-12-31T12:44:07.659Z,0.90
2022-12-31T12:46:35.859Z,2.37
2022-12-31T12:49:04.056Z,0.63
2022-12-31T12:51:48.387Z,0.70
2022-12-31T12:54:39.836Z,0.97
2022-12-31T12:57:22.769Z,0.80
2022-12-31T12:59:56.473Z,2.50
2022-12-31T13:02:48.705Z,1.10
2022-12-31T13:05:28.381Z,0.90
2022-12-31T13:08:19.883Z,1.00
2022-12-31T13:10:58.280Z,2.73
2022-12-31T13:13:47.236Z,0.80
2022-12-31T13:16:42.790Z,1.43
2022-12-31T13:19:32.360Z,2.50
2022-12-31T13:22:15.078Z,1.40
2022-12-31T13:25:07.292Z,1.30
2022-12-31T13:27:47.951Z,3.03
2022-12-31T13:30:20.853Z,2.53
2022-12-31T13:32:57.128Z,2.40
2022-12-31T13:35:26.768Z,1.37
2022-12-31T13:38:05.321Z,3.70
2022-12-31T13:40:50.690Z,1.60
2022-12-31T13:43:47.235Z,3.40
2022-12-31T13:46:45.598Z,1.67
2022-12-31T13:49:26.637Z,1.50
2022-12-31T13:52:03.820Z,3.23
2022-12-31T13:54:56.288Z,1.67
2022-12-31T13:57:46.433Z,1.70
2022-12-31T14:00:22.908Z,1.80
2022-12-31T14:02:58.278Z,1.80
2022-12-31T14:05:35.651Z,2.20
2022-12-31T14:08:05.490Z,2.63
2022-12-31T14:10:42.428Z,2.30
2022-12-31T14:13:21.435Z,2.07
2022-12-31T14:16:04.984Z,2.20
2022-12-31T14:18:49.625Z,2.17
2022-12-31T14:21:22.721Z,4.47
2022-12-31T14:24:00.368Z,2.40
2022-12-31T14:26:35.868Z,4.57
2022-12-31T14:29:11.785Z,2.40
2022-12-31T14:31:53.419Z,2.47
2022-12-31T14:34:35.277Z,2.47
2022-12-31T14:37:16.093Z,2.30
2022-12-31T14:39:49.329Z,2.90
2022-12-31T14:42:49.044Z,2.73
2022-12-31T14:45:52.108Z,3.07
2022-12-31T14:49:10.880Z,6.22
2022-12-31T14:51:37.671Z,4.53
2022-12-31T14:54:28.615Z,5.73
2022-12-31T14:56:55.769Z,5.37
2022-12-31T14:59:28.494Z,5.30
2022-12-31T15:01:59.067Z,4.10
2022-12-31T15:04:47.208Z,5.40
2022-12-31T15:07:33.462Z,5.50
2022-12-31T15:10:20.290Z,4.30
2022-12-31T15:13:01.076Z,4.25
2022-12-31T15:15:36.129Z,3.23
2022-12-31T15:18:28.576Z,3.60
2022-12-31T15:21:20.714Z,3.70
2022-12-31T15:23:49.957Z,3.53
2022-12-31T15:26:25.516Z,5.25
2022-12-31T15:29:04.146Z,3.20
2022-12-31T15:31:32.933Z,4.03
2022-12-31T15:34:06.459Z,4.23
2022-12-31T15:36:41.076Z,3.80
2022-12-31T15:39:13.030Z,3.90
2022-12-31T15:42:18.785Z,3.00
2022-12-31T15:44:43.965Z,3.67
2022-12-31T15:47:30.441Z,2.97
2022-12-31T15:50:02.486Z,3.03
2022-12-31T15:53:00.028Z,4.00
2022-12-31T15:55:26.775Z,2.70
2022-12-31T15:58:00.250Z,4.73
2022-12-31T16:00:55.337Z,2.93
2022-12-31T16:03:28.578Z,3.27
2022-12-31T16:06:00.813Z,2.93
2022-12-31T16:08:31.847Z,2.50
2022-12-31T16:11:01.347Z,3.57
2022-12-31T16:13:29.306Z,2.90
2022-12-31T16:16:08.706Z,2.93
2022-12-31T16:18:40.914Z,3.05
2022-12-31T16:21:33.947Z,2.83
2022-12-31T16:24:23.366Z,2.60
2022-12-31T16:26:53.200Z,2.90
2022-12-31T16:29:22.520Z,2.53
2022-12-31T16:31:51.131Z,3.05
2022-12-31T16:34:23.321Z,2.97
2022-12-31T16:37:00.313Z,3.17
2022-12-31T16:39:31.288Z,3.33
2022-12-31T16:42:20.004Z,2.30
2022-12-31T16:44:48.492Z,2.50
2022-12-31T16:47:34.834Z,2.47
2022-12-31T16:50:16.638Z,1.97
2022-12-31T16:52:45.940Z,2.40
2022-12-31T16:55:23.177Z,3.53
2022-12-31T16:57:55.436Z,2.72
2022-12-31T17:00:25.069Z,3.63
2022-12-31T17:03:08.811Z,2.40
2022-12-31T17:06:03.273Z,2.40
2022-12-31T17:08:50.149Z,2.40
2022-12-31T17:11:23.426Z,2.40
2022-12-31T17:14:15.723Z,9.17
2022-12-31T17:17:08.184Z,3.60
2022-12-31T17:19:44.902Z,4.30
2022-12-31T17:22:41.038Z,3.00
2022-12-31T17:25:30.522Z,3.70
2022-12-31T17:27:58.959Z,4.90
2022-12-31T17:30:32.647Z,3.33
2022-12-31T17:33:25.601Z,5.47
2022-12-31T17:36:17.151Z,3.77
2022-12-31T17:38:46.090Z,4.93
2022-12-31T17:41:28.355Z,3.27
2022-12-31T17:43:58.464Z,3.13
2022-12-31T17:46:26.382Z,5.87
2022-12-31T17:49:01.157Z,3.50
2022-12-31T17:51:27.839Z,4.50
2022-12-31T17:53:56.877Z,2.50
2022-12-31T17:56:25.859Z,3.33
2022-12-31T17:58:53.742Z,3.67
2022-12-31T18:01:23.486Z,2.97
2022-12-31T18:03:55.694Z,3.75
2022-12-31T18:06:22.714Z,3.70
2022-12-31T18:08:51.584Z,2.63
2022-12-31T18:11:23.573Z,2.63
2022-12-31T18:13:53.028Z,3.10
2022-12-31T18:16:22.203Z,4.97
2022-12-31T18:18:49.560Z,5.73
2022-12-31T18:21:32.505Z,3.27
2022-12-31T18:26:26.888Z,2.20
2022-12-31T18:28:53.867Z,2.70
2022-12-31T18:31:30.824Z,4.07
2022-12-31T18:33:58.976Z,3.17
2022-12-31T18:36:26.712Z,2.50
2022-12-31T18:38:55.535Z,5.17
2022-12-31T18:41:31.422Z,2.67
2022-12-31T18:43:58.092Z,2.43
2022-12-31T18:46:28.053Z,4.57
2022-12-31T18:48:54.743Z,2.60
2022-12-31T18:51:31.088Z,3.13
2022-12-31T18:54:01.863Z,3.70
2022-12-31T18:56:28.700Z,3.50
2022-12-31T18:58:55.455Z,3.05
2022-12-31T19:01:30.419Z,3.57
2022-12-31T19:03:59.593Z,2.37
2022-12-31T19:06:26.726Z,3.83
2022-12-31T19:08:56.746Z,2.80
2022-12-31T19:11:23.888Z,3.50
2022-12-31T19:13:53.102Z,2.63
2022-12-31T19:16:19.887Z,2.63
2022-12-31T19:18:50.705Z,3.43
2022-12-31T19:21:22.697Z,7.10
2022-12-31T19:23:54.453Z,4.07
2022-12-31T19:26:22.607Z,3.53
2022-12-31T19:28:50.623Z,2.50
2022-12-31T19:31:18.143Z,3.10
2022-12-31T19:33:45.121Z,2.37
2022-12-31T19:36:19.204Z,4.80
2022-12-31T19:38:50.240Z,3.80
2022-12-31T19:41:21.299Z,2.60
2022-12-31T19:43:48.131Z,3.87
2022-12-31T19:46:16.716Z,2.73
2022-12-31T19:48:46.165Z,5.27
2022-12-31T19:51:18.517Z,4.32
2022-12-31T19:53:46.029Z,3.10
2022-12-31T19:56:15.046Z,3.40
2022-12-31T19:58:41.694Z,2.33
2022-12-31T20:01:09.637Z,2.73
2022-12-31T20:03:40.783Z,6.07
2022-12-31T20:06:09.834Z,4.77
2022-12-31T20:08:39.714Z,2.63
2022-12-31T20:11:17.931Z,3.03
2022-12-31T20:13:48.356Z,3.87
2022-12-31T20:16:17.142Z,2.53
2022-12-31T20:18:45.504Z,4.45
2022-12-31T20:21:18.194Z,3.73
2022-12-31T20:23:45.065Z,5.63
2022-12-31T20:26:12.463Z,3.50
2022-12-31T20:28:44.665Z,3.37
2022-12-31T20:31:17.124Z,3.03
2022-12-31T20:33:43.940Z,3.87
2022-12-31T20:36:17.376Z,3.73
2022-12-31T20:38:46.919Z,4.10
2022-12-31T20:41:16.445Z,3.70
2022-12-31T20:43:46.218Z,3.07
2022-12-31T20:46:23.149Z,3.63
2022-12-31T20:48:51.551Z,3.10
2022-12-31T20:51:19.650Z,3.67
2022-12-31T20:53:52.309Z,3.63
2022-12-31T20:56:24.680Z,2.93
2022-12-31T20:58:51.547Z,5.47
2022-12-31T21:01:18.807Z,4.87
2022-12-31T21:06:36.901Z,4.73
2022-12-31T21:09:08.470Z,2.60
2022-12-31T21:11:53.647Z,2.90
2022-12-31T21:14:20.734Z,3.20
2022-12-31T21:16:52.055Z,3.33
2022-12-31T21:19:18.717Z,2.73
2022-12-31T21:21:45.361Z,2.80
2022-12-31T21:24:12.184Z,4.03
2022-12-31T21:26:38.905Z,2.80
2022-12-31T21:29:05.636Z,3.37
2022-12-31T21:31:37.047Z,3.20
2022-12-31T21:34:03.732Z,4.13
2022-12-31T21:36:30.371Z,3.20
2022-12-31T21:38:57.120Z,2.57
2022-12-31T21:41:42.585Z,2.92
2022-12-31T21:44:09.397Z,3.97
2022-12-31T21:46:38.570Z,3.07
2022-12-31T21:49:07.477Z,3.00
2022-12-31T21:51:54.381Z,3.27
2022-12-31T21:54:41.190Z,2.80
2022-12-31T21:57:08.537Z,3.17
2022-12-31T22:00:24.008Z,3.60
2022-12-31T22:03:02.521Z,2.77
2022-12-31T22:05:33.990Z,3.93
2022-12-31T22:08:00.678Z,3.55
2022-12-31T22:10:27.570Z,2.87
2022-12-31T22:12:56.771Z,3.00
2022-12-31T22:15:25.944Z,5.10
2022-12-31T22:17:52.575Z,2.77
2022-12-31T22:20:28.200Z,3.43
2022-12-31T22:22:55.634Z,3.30
2022-12-31T22:25:22.355Z,4.73
2022-12-31T22:28:27.404Z,4.27
2022-12-31T22:30:40.707Z,3.30
2022-12-31T22:33:09.727Z,7.70
2022-12-31T22:35:36.375Z,2.70
2022-12-31T22:38:08.321Z,4.10
2022-12-31T22:40:38.920Z,2.73
2022-12-31T22:43:05.603Z,3.20
2022-12-31T22:45:36.423Z,3.57
2022-12-31T22:48:03.137Z,3.33
2022-12-31T22:50:31.903Z,3.00
2022-12-31T22:52:58.598Z,3.27
2022-12-31T22:55:25.335Z,5.73
2022-12-31T22:57:51.986Z,3.27
2022-12-31T23:00:21.154Z,5.40
2022-12-31T23:02:47.804Z,3.70
2022-12-31T23:05:16.510Z,3.83
2022-12-31T23:07:45.628Z,4.83
2022-12-31T23:10:30.867Z,4.90
2022-12-31T23:13:19.793Z,5.80
2022-12-31T23:16:05.074Z,6.82
2022-12-31T23:18:50.299Z,7.80
2022-12-31T23:21:35.453Z,7.67
2022-12-31T23:24:04.351Z,5.60
2022-12-31T23:26:33.371Z,5.90
2022-12-31T23:29:02.264Z,6.20
2022-12-31T23:31:29.022Z,7.70
2022-12-31T23:33:56.068Z,6.40
2022-12-31T23:36:25.088Z,7.17
2022-12-31T23:38:54.703Z,9.10
2022-12-31T23:41:21.825Z,10.53
2022-12-31T23:43:49.092Z,10.13
2022-12-31T23:46:17.490Z,16.00
2022-12-31T23:48:44.247Z,15.60
2022-12-31T23:51:13.065Z,15.17
2022-12-31T23:53:39.832Z,13.37
2022-12-31T23:56:20.894Z,14.47
2022-12-31T23:58:55.121Z,14.57
